Time;durP1;ratioP1;P1;durP2;ratioP2;P2;SDS_P1;SDS_P2;PMS_P1;PMS_P2;Temp;Humidity;BMP_temperature;BMP_pressure;BME280_temperature;BME280_humidity;BME280_pressure;Samples;Min_cycle;Max_cycle;Signal;HPM_P1;HPM_P2
2023/03/01 00:00:39;;;;;;;6.43;5.30;;;-4.30;99.90;;;;;;4967753;28;20418;-85
2023/03/01 00:03:05;;;;;;;8.82;5.95;;;-4.30;99.90;;;;;;4972023;28;20733;-85
2023/03/01 00:05:31;;;;;;;7.05;6.00;;;-4.30;99.90;;;;;;4971051;28;20386;-86
2023/03/01 00:07:57;;;;;;;8.18;6.43;;;-4.30;99.90;;;;;;4969668;28;20478;-85
2023/03/01 00:10:23;;;;;;;8.20;6.72;;;-4.40;99.90;;;;;;4974626;28;20439;-84
2023/03/01 00:12:49;;;;;;;8.45;6.63;;;-4.40;99.90;;;;;;4974887;28;20390;-87
2023/03/01 00:15:14;;;;;;;9.37;6.63;;;-4.40;99.90;;;;;;4966618;28;21008;-85
2023/03/01 00:17:40;;;;;;;8.20;6.43;;;-4.40;99.90;;;;;;4969019;28;20450;-84
2023/03/01 00:20:10;;;;;;;8.10;6.50;;;-4.40;99.90;;;;;;4970697;28;20394;-84
2023/03/01 00:22:36;;;;;;;10.20;7.15;;;-4.30;99.90;;;;;;4970740;28;20398;-85
2023/03/01 00:25:02;;;;;;;9.50;7.20;;;-4.40;99.90;;;;;;4971402;28;20413;-85
2023/03/01 00:27:28;;;;;;;10.65;8.52;;;-4.30;99.90;;;;;;4968114;28;20406;-85
2023/03/01 00:29:54;;;;;;;10.13;8.07;;;-4.30;99.90;;;;;;4969256;28;20751;-85
2023/03/01 00:32:19;;;;;;;9.88;7.75;;;-4.30;99.90;;;;;;4968527;28;20489;-85
2023/03/01 00:34:53;;;;;;;13.45;8.40;;;-4.20;99.90;;;;;;4971060;28;20450;-86
2023/03/01 00:37:23;;;;;;;9.93;8.60;;;-4.40;99.90;;;;;;4968447;28;20597;-85
2023/03/01 00:39:49;;;;;;;11.13;8.13;;;-4.60;99.90;;;;;;4972216;28;20382;-84
2023/03/01 00:42:16;;;;;;;9.95;8.13;;;-4.70;99.90;;;;;;4973768;28;20410;-85
2023/03/01 00:44:42;;;;;;;12.13;7.95;;;-4.80;99.90;;;;;;4970797;28;20445;-85
2023/03/01 00:47:07;;;;;;;9.50;7.60;;;-4.80;99.90;;;;;;4967455;28;20415;-86
2023/03/01 00:49:33;;;;;;;9.50;7.40;;;-4.70;99.90;;;;;;4970858;28;20379;-85
2023/03/01 00:51:58;;;;;;;10.60;7.63;;;-4.60;99.90;;;;;;4969381;28;20389;-84
2023/03/01 00:54:24;;;;;;;10.47;8.03;;;-4.50;99.90;;;;;;4969780;28;20446;-87
2023/03/01 00:56:50;;;;;;;11.10;8.37;;;-4.60;99.90;;;;;;4968228;28;20897;-86
2023/03/01 00:59:15;;;;;;;12.17;9.13;;;-4.70;99.90;;;;;;4969606;28;20394;-87
2023/03/01 01:01:41;;;;;;;10.00;7.93;;;-4.70;99.90;;;;;;4968525;28;20426;-85
2023/03/01 01:04:09;;;;;;;9.70;7.67;;;-4.60;99.90;;;;;;4974428;28;20492;-84
2023/03/01 01:06:38;;;;;;;10.20;7.53;;;-4.60;99.90;;;;;;4969960;28;20485;-84
2023/03/01 01:09:06;;;;;;;11.47;8.57;;;-4.60;99.90;;;;;;4970528;28;20838;-85
2023/03/01 01:11:32;;;;;;;12.85;8.43;;;-4.70;99.90;;;;;;4970974;28;20881;-85
2023/03/01 01:13:59;;;;;;;9.02;7.75;;;-5.00;99.90;;;;;;4969270;28;20418;-84
2023/03/01 01:16:27;;;;;;;9.65;7.20;;;-5.00;99.90;;;;;;4968591;28;20477;-84
2023/03/01 01:18:52;;;;;;;8.50;7.15;;;-4.90;99.90;;;;;;4969607;28;20494;-86
2023/03/01 01:21:21;;;;;;;8.75;7.03;;;-4.90;99.90;;;;;;4970098;28;20433;-84
2023/03/01 01:23:47;;;;;;;7.75;6.72;;;-4.70;99.90;;;;;;4967598;28;20723;-84
2023/03/01 01:26:19;;;;;;;9.93;7.30;;;-4.90;99.90;;;;;;4967997;28;20410;-84
2023/03/01 01:28:45;;;;;;;8.15;6.80;;;-5.00;99.90;;;;;;5246849;23;20468;-85
2023/03/01 01:31:12;;;;;;;8.80;7.13;;;-5.00;99.90;;;;;;5005943;28;20477;-86
2023/03/01 01:33:38;;;;;;;8.40;6.60;;;-5.10;99.90;;;;;;5007312;28;20395;-85
2023/03/01 01:36:05;;;;;;;9.50;7.00;;;-5.20;99.90;;;;;;5010298;28;20482;-86
2023/03/01 01:38:31;;;;;;;10.77;7.78;;;-5.20;99.90;;;;;;4986915;28;20404;-85
2023/03/01 01:40:58;;;;;;;9.38;7.22;;;-5.20;99.90;;;;;;4994685;28;20395;-86
2023/03/01 01:43:34;;;;;;;10.35;8.05;;;-5.30;99.90;;;;;;5008038;28;20869;-85
2023/03/01 01:46:14;;;;;;;12.30;8.45;;;-5.30;99.90;;;;;;5013498;28;20840;-85
2023/03/01 01:48:47;;;;;;;10.50;8.10;;;-5.20;99.90;;;;;;5009873;28;20393;-86
2023/03/01 01:51:19;;;;;;;8.77;7.75;;;-5.20;99.90;;;;;;5008802;28;20981;-86
2023/03/01 01:53:49;;;;;;;10.38;7.85;;;-5.10;99.90;;;;;;5008694;28;20391;-86
2023/03/01 01:56:16;;;;;;;10.77;8.20;;;-4.90;99.90;;;;;;5010464;28;20383;-86
2023/03/01 01:58:44;;;;;;;9.70;7.90;;;-5.10;99.90;;;;;;5007089;28;20433;-87
2023/03/01 02:01:10;;;;;;;10.73;8.02;;;-5.00;99.90;;;;;;5008919;28;20877;-85
2023/03/01 02:03:41;;;;;;;9.45;7.70;;;-4.90;99.90;;;;;;5010198;28;20419;-86
2023/03/01 02:06:29;;;;;;;10.27;8.60;;;-4.80;99.90;;;;;;5010774;28;20406;-87
2023/03/01 02:09:00;;;;;;;10.30;8.35;;;-5.10;99.90;;;;;;4980633;28;20383;-84
2023/03/01 02:11:29;;;;;;;12.50;8.88;;;-5.20;99.90;;;;;;5010943;28;20395;-85
2023/03/01 02:13:55;;;;;;;9.82;8.07;;;-5.40;99.90;;;;;;5014518;28;20383;-85
2023/03/01 02:16:21;;;;;;;10.98;8.68;;;-5.30;99.90;;;;;;5014048;28;20399;-86
2023/03/01 02:18:47;;;;;;;12.20;8.27;;;-5.20;99.90;;;;;;5015096;28;20893;-85
2023/03/01 02:21:22;;;;;;;9.83;8.07;;;-5.30;99.90;;;;;;5013165;28;20749;-86
2023/03/01 02:23:48;;;;;;;10.90;8.23;;;-5.30;99.90;;;;;;5015946;28;20578;-85
2023/03/01 02:26:16;;;;;;;10.50;8.68;;;-5.30;99.90;;;;;;5013256;28;20407;-87
2023/03/01 02:28:44;;;;;;;9.90;8.20;;;-5.30;99.90;;;;;;5019808;28;20913;-87
2023/03/01 02:33:59;;;;;;;11.30;8.50;;;-5.50;99.90;;;;;;5014363;28;20409;-86
2023/03/01 02:36:28;;;;;;;10.10;8.30;;;-5.50;99.90;;;;;;5013167;28;20379;-86
2023/03/01 02:38:58;;;;;;;9.75;7.97;;;-5.50;99.90;;;;;;5010551;28;20441;-87
2023/03/01 02:41:28;;;;;;;9.18;7.70;;;-5.40;99.90;;;;;;4994632;28;20392;-86
2023/03/01 02:43:53;;;;;;;10.68;8.27;;;-5.40;99.90;;;;;;4993702;28;20413;-85
2023/03/01 02:46:25;;;;;;;9.32;7.65;;;-5.50;99.90;;;;;;4993673;28;20412;-87
2023/03/01 02:48:56;;;;;;;9.65;7.88;;;-5.50;99.90;;;;;;5006776;28;20435;-85
2023/03/01 02:51:45;;;;;;;10.55;8.38;;;-5.40;99.90;;;;;;5012134;28;20423;-86
2023/03/01 02:54:22;;;;;;;10.60;8.27;;;-5.60;99.90;;;;;;5013396;28;20497;-86
2023/03/01 02:56:49;;;;;;;10.20;8.20;;;-5.50;99.90;;;;;;5012801;28;20510;-86
2023/03/01 02:59:18;;;;;;;9.48;7.65;;;-5.40;99.90;;;;;;5010499;28;20497;-85
2023/03/01 03:01:44;;;;;;;10.07;7.75;;;-5.40;99.90;;;;;;5013103;28;20465;-85
2023/03/01 03:04:17;;;;;;;10.23;8.25;;;-5.30;99.90;;;;;;5010292;28;20423;-85
2023/03/01 03:06:44;;;;;;;10.73;8.33;;;-5.40;99.90;;;;;;5012206;28;20473;-85
2023/03/01 03:09:11;;;;;;;9.75;7.82;;;-5.50;99.90;;;;;;5011390;28;20589;-86
2023/03/01 03:11:39;;;;;;;9.17;7.60;;;-5.60;99.90;;;;;;5012856;28;20957;-87
2023/03/01 03:14:05;;;;;;;9.52;7.75;;;-5.40;99.90;;;;;;5012402;28;20395;-85
2023/03/01 03:16:31;;;;;;;11.07;8.25;;;-5.40;99.90;;;;;;5011972;28;20403;-85
2023/03/01 03:19:04;;;;;;;10.77;8.68;;;-5.50;99.90;;;;;;5009886;28;20486;-86
2023/03/01 03:21:32;;;;;;;11.85;8.15;;;-5.60;99.90;;;;;;5012954;28;20379;-84
2023/03/01 03:23:57;;;;;;;10.73;8.93;;;-5.60;99.90;;;;;;5010957;28;20460;-85
2023/03/01 03:26:24;;;;;;;10.00;7.80;;;-5.60;99.90;;;;;;5011727;28;20489;-86
2023/03/01 03:28:50;;;;;;;10.03;7.60;;;-5.70;99.90;;;;;;5012600;28;20478;-86
2023/03/01 03:31:16;;;;;;;10.25;8.55;;;-5.70;99.90;;;;;;5011866;28;20462;-86
2023/03/01 03:33:41;;;;;;;10.27;8.07;;;-5.70;99.90;;;;;;5012298;28;20395;-85
2023/03/01 03:36:12;;;;;;;10.48;7.47;;;-5.80;99.90;;;;;;5011673;28;20470;-86
2023/03/01 03:38:39;;;;;;;9.30;8.35;;;-5.80;99.90;;;;;;5013966;28;20397;-85
2023/03/01 03:41:08;;;;;;;10.52;7.95;;;-5.80;99.90;;;;;;5013258;28;20375;-84
2023/03/01 03:43:36;;;;;;;8.80;7.63;;;-5.80;99.90;;;;;;5011785;28;20399;-84
2023/03/01 03:46:06;;;;;;;9.13;8.15;;;-5.80;99.90;;;;;;5013190;28;20432;-85
2023/03/01 03:48:38;;;;;;;9.93;8.07;;;-5.90;99.90;;;;;;5011418;28;21271;-85
2023/03/01 03:51:06;;;;;;;10.20;8.10;;;-5.80;99.90;;;;;;5012412;28;20383;-85
2023/03/01 03:53:33;;;;;;;8.40;7.50;;;-5.80;99.90;;;;;;5010679;28;20398;-87
2023/03/01 03:55:59;;;;;;;9.40;8.23;;;-5.70;99.90;;;;;;5011355;28;20529;-84
2023/03/01 03:58:25;;;;;;;10.23;8.20;;;-5.50;99.90;;;;;;5009993;28;20434;-85
2023/03/01 04:00:55;;;;;;;9.57;8.02;;;-5.60;99.90;;;;;;5003394;28;20395;-84
2023/03/01 04:03:22;;;;;;;9.18;7.78;;;-5.70;99.90;;;;;;5006963;28;20398;-84
2023/03/01 04:05:50;;;;;;;10.30;8.10;;;-5.90;99.90;;;;;;5012481;28;20465;-86
2023/03/01 04:08:19;;;;;;;10.80;8.95;;;-5.90;99.90;;;;;;5004636;28;20387;-84
2023/03/01 04:10:48;;;;;;;10.32;8.27;;;-5.90;99.90;;;;;;5000700;28;20406;-84
2023/03/01 04:13:19;;;;;;;8.82;7.10;;;-5.90;99.90;;;;;;5010507;28;20407;-85
2023/03/01 04:15:45;;;;;;;10.73;8.15;;;-5.70;99.90;;;;;;5010023;28;20562;-86
2023/03/01 04:18:15;;;;;;;10.48;8.45;;;-5.90;99.90;;;;;;5010346;28;20779;-84
2023/03/01 04:20:42;;;;;;;9.50;8.38;;;-5.90;99.90;;;;;;5011295;28;20376;-85
2023/03/01 04:23:20;;;;;;;10.05;8.30;;;-5.90;99.90;;;;;;5010253;28;20391;-85
2023/03/01 04:25:53;;;;;;;10.38;8.45;;;-5.90;99.90;;;;;;5009904;28;20763;-84
2023/03/01 04:28:19;;;;;;;10.63;8.65;;;-5.90;99.90;;;;;;5009574;28;20757;-85
2023/03/01 04:30:45;;;;;;;10.93;8.60;;;-6.00;99.90;;;;;;5010999;28;20410;-86
2023/03/01 04:33:11;;;;;;;9.82;8.77;;;-6.00;99.90;;;;;;5011284;28;20379;-84
2023/03/01 04:35:38;;;;;;;11.10;9.25;;;-5.90;99.90;;;;;;5010173;28;20419;-84
2023/03/01 04:38:05;;;;;;;10.40;8.68;;;-6.00;99.90;;;;;;5008865;28;20394;-85
2023/03/01 04:40:31;;;;;;;10.23;8.60;;;-6.00;99.90;;;;;;5009427;28;20406;-85
2023/03/01 04:43:00;;;;;;;11.50;8.80;;;-6.10;99.90;;;;;;5011581;28;20470;-84
2023/03/01 04:45:25;;;;;;;10.83;8.80;;;-6.00;99.90;;;;;;5011271;28;20406;-85
2023/03/01 04:47:54;;;;;;;11.30;8.97;;;-6.00;99.90;;;;;;5010566;28;20874;-85
2023/03/01 04:50:23;;;;;;;10.90;8.70;;;-6.00;99.90;;;;;;5008472;28;20427;-85
2023/03/01 04:52:49;;;;;;;10.43;8.52;;;-6.10;99.90;;;;;;5010932;28;20379;-85
2023/03/01 04:55:15;;;;;;;11.15;9.00;;;-6.00;99.90;;;;;;5010220;28;20489;-84
2023/03/01 04:57:41;;;;;;;9.63;8.57;;;-6.00;99.90;;;;;;5008711;28;20386;-82
2023/03/01 05:00:19;;;;;;;9.90;8.90;;;-5.90;99.90;;;;;;5007723;28;20857;-83
2023/03/01 05:02:52;;;;;;;11.18;9.02;;;-6.00;99.90;;;;;;5009631;28;20391;-84
2023/03/01 05:05:20;;;;;;;11.13;9.60;;;-6.00;99.90;;;;;;5009870;28;20388;-84
2023/03/01 05:07:46;;;;;;;10.52;8.93;;;-6.00;99.90;;;;;;5009801;28;20436;-85
2023/03/01 05:10:11;;;;;;;10.32;9.23;;;-6.00;99.90;;;;;;5010241;28;21036;-84
2023/03/01 05:12:37;;;;;;;10.98;9.45;;;-6.00;99.90;;;;;;5016259;28;20457;-82
2023/03/01 05:15:06;;;;;;;12.95;10.48;;;-6.10;99.90;;;;;;5012239;28;20410;-84
2023/03/01 05:17:34;;;;;;;12.90;10.18;;;-6.10;99.90;;;;;;5028533;28;20444;-84
2023/03/01 05:20:00;;;;;;;11.55;9.80;;;-6.10;99.90;;;;;;5022165;28;20465;-83
2023/03/01 05:22:26;;;;;;;10.07;8.98;;;-6.10;99.90;;;;;;5010482;28;20405;-82
2023/03/01 05:24:53;;;;;;;12.57;9.60;;;-6.10;99.90;;;;;;5010968;28;20370;-84
2023/03/01 05:27:21;;;;;;;11.27;9.65;;;-6.00;99.90;;;;;;5007971;28;20423;-83
2023/03/01 05:29:47;;;;;;;12.70;9.43;;;-6.20;99.90;;;;;;5008813;28;20419;-83
2023/03/01 05:32:15;;;;;;;10.27;9.00;;;-6.20;99.90;;;;;;5010362;28;20391;-84
2023/03/01 05:34:42;;;;;;;12.40;9.82;;;-6.20;99.90;;;;;;5010421;28;20407;-83
2023/03/01 05:37:08;;;;;;;11.43;9.90;;;-6.20;99.90;;;;;;5011910;28;20383;-83
2023/03/01 05:39:34;;;;;;;11.10;9.02;;;-6.40;99.90;;;;;;5011266;28;20400;-83
2023/03/01 05:42:01;;;;;;;15.15;11.85;;;-6.40;99.90;;;;;;5012385;28;20379;-84
2023/03/01 05:44:30;;;;;;;14.27;11.40;;;-6.40;99.90;;;;;;5010748;28;20403;-84
2023/03/01 05:46:56;;;;;;;13.80;11.27;;;-6.40;99.90;;;;;;5012999;28;20380;-83
2023/03/01 05:49:23;;;;;;;13.15;10.38;;;-6.40;99.90;;;;;;5011685;28;20415;-83
2023/03/01 05:51:51;;;;;;;13.02;10.23;;;-6.30;99.90;;;;;;5008665;28;20484;-84
2023/03/01 05:54:17;;;;;;;12.52;10.27;;;-6.30;99.90;;;;;;5009869;28;20415;-82
2023/03/01 05:56:44;;;;;;;12.00;10.02;;;-6.20;99.90;;;;;;5009082;28;20746;-83
2023/03/01 05:59:11;;;;;;;11.27;9.80;;;-6.20;99.90;;;;;;5007847;28;20407;-84
2023/03/01 06:01:37;;;;;;;12.07;9.75;;;-6.10;99.90;;;;;;5009955;28;20405;-83
2023/03/01 06:04:04;;;;;;;11.07;9.50;;;-6.10;99.90;;;;;;5010996;28;20809;-83
2023/03/01 06:06:32;;;;;;;12.68;9.85;;;-6.20;99.90;;;;;;5014630;28;20374;-82
2023/03/01 06:08:58;;;;;;;11.90;9.98;;;-6.20;99.90;;;;;;5012559;28;20407;-82
2023/03/01 06:11:24;;;;;;;10.57;9.48;;;-6.10;99.90;;;;;;4990630;28;20450;-83
2023/03/01 06:13:50;;;;;;;11.45;10.07;;;-6.10;99.90;;;;;;4993781;28;20381;-84
2023/03/01 06:16:16;;;;;;;13.43;11.20;;;-6.10;99.90;;;;;;4994077;28;20377;-82
2023/03/01 06:18:42;;;;;;;13.10;11.37;;;-6.10;99.90;;;;;;4997775;28;20399;-85
2023/03/01 06:21:08;;;;;;;13.57;11.13;;;-6.20;99.90;;;;;;5012920;28;20758;-83
2023/03/01 06:23:34;;;;;;;15.55;12.88;;;-6.10;99.90;;;;;;5009611;28;20393;-84
2023/03/01 06:26:04;;;;;;;17.25;13.55;;;-6.10;99.90;;;;;;5008457;28;20387;-82
2023/03/01 06:28:30;;;;;;;16.90;13.63;;;-6.20;99.90;;;;;;5006597;28;20395;-83
2023/03/01 06:30:56;;;;;;;15.20;12.93;;;-6.20;99.90;;;;;;5009130;28;20385;-83
2023/03/01 06:33:23;;;;;;;17.25;14.45;;;-6.20;99.90;;;;;;5008514;28;20414;-83
2023/03/01 06:35:50;;;;;;;17.98;16.08;;;-6.10;99.90;;;;;;5009096;28;20410;-83
2023/03/01 06:38:18;;;;;;;15.90;14.18;;;-6.00;99.90;;;;;;5007594;28;20414;-84
2023/03/01 06:40:44;;;;;;;17.17;15.33;;;-5.80;99.90;;;;;;5008689;28;20379;-85
2023/03/01 06:43:10;;;;;;;21.33;16.13;;;-5.70;99.90;;;;;;5009303;28;20390;-83
2023/03/01 06:45:37;;;;;;;22.48;16.67;;;-5.50;99.90;;;;;;5009079;28;20376;-83
2023/03/01 06:48:07;;;;;;;19.20;14.90;;;-5.40;99.90;;;;;;5008474;28;20376;-84
2023/03/01 06:50:33;;;;;;;16.33;14.55;;;-5.50;99.90;;;;;;5009683;28;20426;-84
2023/03/01 06:53:02;;;;;;;22.85;13.85;;;-5.40;99.90;;;;;;5009651;28;20718;-83
2023/03/01 06:55:28;;;;;;;16.13;13.00;;;-5.20;99.90;;;;;;5009549;28;20482;-83
2023/03/01 06:57:56;;;;;;;16.88;14.63;;;-5.10;99.90;;;;;;5007556;28;20360;-85
2023/03/01 07:00:22;;;;;;;17.83;14.23;;;-5.00;99.90;;;;;;5008419;28;20390;-85
2023/03/01 07:02:48;;;;;;;17.83;15.98;;;-4.90;99.90;;;;;;5012584;28;20382;-83
2023/03/01 07:05:13;;;;;;;15.97;14.27;;;-4.90;99.90;;;;;;5012575;28;20383;-83
2023/03/01 07:07:39;;;;;;;15.93;12.80;;;-4.70;99.90;;;;;;5012013;28;20386;-83
2023/03/01 07:10:05;;;;;;;15.93;13.63;;;-4.30;99.90;;;;;;5012937;28;20449;-83
2023/03/01 07:12:37;;;;;;;17.08;14.75;;;-4.20;99.90;;;;;;5013579;28;20375;-83
2023/03/01 07:15:05;;;;;;;15.27;13.55;;;-4.30;99.90;;;;;;5011197;28;20422;-83
2023/03/01 07:17:31;;;;;;;17.80;14.83;;;-4.20;99.90;;;;;;5012716;28;20418;-83
2023/03/01 07:19:57;;;;;;;15.67;13.33;;;-3.90;99.90;;;;;;5011831;28;20924;-84
2023/03/01 07:22:23;;;;;;;16.13;13.60;;;-3.80;99.90;;;;;;5012107;28;20931;-84
2023/03/01 07:24:48;;;;;;;16.73;14.00;;;-3.40;99.90;;;;;;5012098;28;20465;-84
2023/03/01 07:27:14;;;;;;;17.53;14.47;;;-3.00;99.90;;;;;;5006809;28;20430;-85
2023/03/01 07:29:39;;;;;;;18.23;14.97;;;-2.80;99.90;;;;;;5009578;28;20810;-83
2023/03/01 07:32:06;;;;;;;18.43;14.90;;;-2.70;99.90;;;;;;5022178;28;20385;-83
2023/03/01 07:34:32;;;;;;;15.38;13.70;;;-2.40;99.90;;;;;;4995946;28;20956;-84
2023/03/01 07:36:58;;;;;;;22.23;15.25;;;-2.20;99.90;;;;;;5008293;28;20383;-83
2023/03/01 07:39:23;;;;;;;18.20;14.17;;;-2.00;99.90;;;;;;5009944;28;20418;-82
2023/03/01 07:41:50;;;;;;;17.73;14.53;;;-1.90;99.90;;;;;;5008544;28;20383;-82
2023/03/01 07:44:17;;;;;;;15.73;13.20;;;-1.90;99.90;;;;;;5009998;28;20403;-83
2023/03/01 07:46:43;;;;;;;17.45;13.20;;;-1.80;99.90;;;;;;5009966;28;20382;-82
2023/03/01 07:49:08;;;;;;;16.63;12.65;;;-1.50;99.90;;;;;;5011918;28;20390;-82
2023/03/01 07:51:34;;;;;;;14.93;12.60;;;-1.10;99.90;;;;;;5008396;28;20490;-83
2023/03/01 07:54:00;;;;;;;15.23;12.50;;;-0.70;99.90;;;;;;5009784;28;20371;-83
2023/03/01 07:56:25;;;;;;;14.70;11.23;;;-0.10;99.90;;;;;;5008544;28;20585;-84
2023/03/01 07:58:58;;;;;;;14.82;10.90;;;0.70;99.90;;;;;;5009154;28;20495;-85
2023/03/01 08:01:24;;;;;;;13.85;11.07;;;1.70;99.90;;;;;;5011964;28;20399;-83
2023/03/01 08:03:50;;;;;;;12.02;10.25;;;3.00;99.90;;;;;;5009774;28;20392;-81
2023/03/01 08:06:17;;;;;;;13.37;9.97;;;4.10;99.90;;;;;;5003578;28;20449;-83
2023/03/01 08:08:43;;;;;;;11.82;9.70;;;3.40;99.90;;;;;;5006956;28;20399;-83
2023/03/01 08:11:13;;;;;;;10.63;9.43;;;3.50;99.90;;;;;;5004751;28;20421;-83
2023/03/01 08:13:39;;;;;;;10.35;8.93;;;4.80;99.90;;;;;;5006981;28;20793;-84
2023/03/01 08:16:07;;;;;;;11.00;8.90;;;6.00;99.90;;;;;;5008098;28;20442;-84
2023/03/01 08:18:33;;;;;;;10.50;8.88;;;6.70;99.90;;;;;;5006668;28;20727;-83
2023/03/01 08:21:10;;;;;;;11.25;8.80;;;7.30;99.90;;;;;;5006144;28;20481;-84
2023/03/01 08:23:36;;;;;;;10.10;8.23;;;7.50;99.90;;;;;;5008593;28;20383;-83
2023/03/01 08:26:11;;;;;;;11.25;8.82;;;7.20;99.90;;;;;;5009376;28;20390;-83
2023/03/01 08:28:37;;;;;;;9.32;8.40;;;7.40;99.90;;;;;;5009441;28;20433;-84
2023/03/01 08:31:12;;;;;;;11.25;8.88;;;6.60;99.90;;;;;;5007835;28;20485;-83
2023/03/01 08:33:38;;;;;;;10.02;8.13;;;6.00;99.90;;;;;;5010106;28;20391;-81
2023/03/01 08:36:06;;;;;;;11.27;8.60;;;5.50;99.90;;;;;;5009434;28;20416;-76
2023/03/01 08:38:33;;;;;;;10.75;9.27;;;5.30;99.90;;;;;;5009981;28;20390;-84
2023/03/01 08:41:03;;;;;;;9.63;8.03;;;5.00;99.90;;;;;;5008678;28;20391;-85
2023/03/01 08:43:29;;;;;;;9.63;7.90;;;5.00;99.90;;;;;;5009567;28;20448;-85
2023/03/01 08:45:56;;;;;;;8.63;7.40;;;5.40;99.90;;;;;;5007104;28;20877;-83
2023/03/01 08:48:22;;;;;;;8.98;6.93;;;5.80;99.90;;;;;;5023409;28;20413;-84
2023/03/01 08:50:47;;;;;;;8.25;6.85;;;6.30;99.90;;;;;;5007640;28;20799;-84
2023/03/01 08:53:13;;;;;;;8.20;7.10;;;6.40;99.90;;;;;;5008730;28;20457;-84
2023/03/01 08:55:38;;;;;;;9.80;7.43;;;6.50;99.90;;;;;;5010142;28;20438;-84
2023/03/01 08:58:04;;;;;;;10.45;7.38;;;6.50;99.90;;;;;;5026700;28;20497;-84
2023/03/01 09:00:30;;;;;;;8.57;7.13;;;6.60;99.90;;;;;;5010698;28;20391;-84
2023/03/01 09:02:55;;;;;;;10.03;7.13;;;7.10;99.90;;;;;;5007954;28;20499;-84
2023/03/01 09:05:21;;;;;;;9.98;7.65;;;7.10;99.90;;;;;;5007900;28;20855;-83
2023/03/01 09:07:47;;;;;;;8.47;7.40;;;6.90;99.90;;;;;;5006539;28;20382;-85
2023/03/01 09:10:12;;;;;;;9.37;7.40;;;6.40;99.90;;;;;;5008506;28;20406;-83
2023/03/01 09:12:38;;;;;;;10.40;7.13;;;6.40;99.90;;;;;;5007029;28;20399;-84
2023/03/01 09:15:04;;;;;;;8.93;7.20;;;6.20;99.90;;;;;;5007015;28;20411;-84
2023/03/01 09:17:30;;;;;;;9.35;7.28;;;6.60;99.90;;;;;;5007067;28;20490;-84
2023/03/01 09:19:56;;;;;;;10.65;6.85;;;7.50;99.90;;;;;;5006904;28;20948;-84
2023/03/01 09:22:22;;;;;;;10.23;7.57;;;7.50;99.90;;;;;;5007370;28;20379;-85
2023/03/01 09:24:47;;;;;;;10.70;7.90;;;7.90;99.90;;;;;;5001265;28;20500;-83
2023/03/01 09:27:14;;;;;;;9.38;7.30;;;8.60;99.90;;;;;;5003599;28;20484;-85
2023/03/01 09:29:40;;;;;;;8.23;6.38;;;8.90;99.90;;;;;;5003383;28;20753;-86
2023/03/01 09:32:07;;;;;;;8.68;6.50;;;10.40;99.90;;;;;;5005374;28;20398;-84
2023/03/01 09:35:00;;;;;;;10.95;6.82;;;11.30;99.90;;;;;;5007458;28;20924;-83
2023/03/01 09:37:19;;;;;;;8.98;6.15;;;12.00;99.90;;;;;;5006368;28;20873;-84
2023/03/01 09:39:44;;;;;;;8.97;6.17;;;12.20;99.90;;;;;;5007781;28;20402;-83
2023/03/01 09:42:12;;;;;;;8.13;5.72;;;12.70;99.90;;;;;;5007571;28;20481;-84
2023/03/01 09:44:40;;;;;;;7.97;5.72;;;13.20;99.90;;;;;;5007477;28;20402;-84
2023/03/01 09:47:12;;;;;;;8.45;6.07;;;13.70;99.60;;;;;;5009047;28;20371;-83
2023/03/01 09:49:41;;;;;;;7.05;5.40;;;13.20;99.30;;;;;;5010253;28;20477;-83
2023/03/01 09:52:36;;;;;;;8.10;5.40;;;13.50;99.00;;;;;;5008244;28;20402;-86
2023/03/01 09:55:10;;;;;;;7.40;5.03;;;13.80;98.60;;;;;;5008685;28;20473;-79
2023/03/01 09:58:20;;;;;;;7.68;5.50;;;14.50;97.30;;;;;;5006484;28;20714;-80
2023/03/01 10:00:49;;;;;;;6.90;5.00;;;13.40;98.20;;;;;;5006719;28;20541;-87
2023/03/01 10:03:48;;;;;;;6.60;4.93;;;13.40;97.50;;;;;;5009760;28;20864;-83
2023/03/01 10:06:20;;;;;;;6.45;4.95;;;13.50;96.70;;;;;;5009305;28;20395;-83
2023/03/01 10:08:56;;;;;;;6.93;4.32;;;13.10;97.90;;;;;;5009344;28;20442;-83
2023/03/01 10:11:24;;;;;;;6.70;4.63;;;13.50;97.80;;;;;;5021357;28;20389;-85
2023/03/01 10:14:16;;;;;;;6.85;4.82;;;13.40;96.50;;;;;;4998699;28;20425;-83
2023/03/01 10:16:52;;;;;;;5.93;4.60;;;12.90;97.90;;;;;;5004715;28;20405;-82
2023/03/01 10:19:26;;;;;;;5.43;3.55;;;13.10;96.40;;;;;;5002465;28;20411;-84
2023/03/01 10:21:53;;;;;;;5.35;3.08;;;13.10;96.00;;;;;;5011903;28;20367;-82
2023/03/01 10:24:21;;;;;;;4.53;2.80;;;13.10;94.30;;;;;;5010432;28;20403;-84
2023/03/01 10:27:19;;;;;;;4.55;3.10;;;12.20;95.50;;;;;;5010325;28;20383;-84
2023/03/01 10:29:48;;;;;;;4.50;3.03;;;11.30;96.00;;;;;;4994182;28;20883;-85
2023/03/01 10:32:14;;;;;;;3.80;3.13;;;11.40;96.00;;;;;;4995414;28;20385;-83
2023/03/01 10:34:40;;;;;;;5.32;3.15;;;11.80;94.60;;;;;;4997727;28;20399;-84
2023/03/01 10:37:15;;;;;;;3.88;3.28;;;11.80;95.20;;;;;;5015800;28;20406;-84
2023/03/01 10:40:08;;;;;;;3.95;3.38;;;12.10;95.60;;;;;;5017927;28;20470;-83
2023/03/01 10:42:45;;;;;;;4.93;3.60;;;11.50;96.30;;;;;;5014552;28;20419;-86
2023/03/01 10:45:29;;;;;;;4.70;4.03;;;11.30;94.80;;;;;;5017863;28;20395;-85
2023/03/01 10:48:05;;;;;;;4.78;3.78;;;11.00;95.90;;;;;;5013926;28;20434;-83
2023/03/01 10:50:31;;;;;;;5.55;3.60;;;11.70;95.90;;;;;;5013913;28;20382;-86
2023/03/01 10:53:03;;;;;;;4.30;3.78;;;12.40;95.50;;;;;;5013878;28;20399;-84
2023/03/01 10:55:37;;;;;;;5.25;3.75;;;13.00;95.10;;;;;;5016021;28;20498;-84
2023/03/01 10:58:14;;;;;;;4.83;3.53;;;12.50;94.60;;;;;;5014183;28;20384;-83
2023/03/01 11:01:06;;;;;;;5.03;3.37;;;12.30;94.20;;;;;;5010169;28;20411;-83
2023/03/01 11:03:34;;;;;;;4.38;3.30;;;12.50;93.90;;;;;;5014944;28;20379;-85
2023/03/01 11:06:21;;;;;;;5.07;3.20;;;13.10;93.90;;;;;;5006805;28;20893;-83
2023/03/01 11:08:50;;;;;;;4.57;2.92;;;13.40;93.50;;;;;;5013870;28;20901;-84
2023/03/01 11:11:23;;;;;;;4.40;3.20;;;13.40;92.20;;;;;;5012296;28;20387;-84
2023/03/01 11:14:04;;;;;;;5.28;3.30;;;12.60;91.60;;;;;;5012237;28;20476;-82
2023/03/01 11:16:37;;;;;;;4.40;3.40;;;11.70;92.50;;;;;;5013470;28;20399;-85
2023/03/01 11:19:09;;;;;;;6.35;2.97;;;10.40;93.80;;;;;;5009992;28;20446;-83
2023/03/01 11:21:38;;;;;;;6.10;3.58;;;11.80;93.70;;;;;;5010453;28;20392;-84
2023/03/01 11:24:06;;;;;;;3.55;2.85;;;12.40;93.40;;;;;;5008105;28;20433;-83
2023/03/01 11:26:36;;;;;;;11.77;3.50;;;12.80;92.70;;;;;;5010800;28;20399;-84
2023/03/01 11:29:07;;;;;;;3.95;3.00;;;12.60;94.20;;;;;;5010335;28;20406;-82
2023/03/01 11:31:34;;;;;;;4.40;3.03;;;12.00;92.70;;;;;;5008550;28;20898;-83
2023/03/01 11:34:03;;;;;;;4.35;3.20;;;11.70;92.40;;;;;;5008780;28;20400;-85
2023/03/01 11:36:54;;;;;;;4.27;3.17;;;10.70;93.10;;;;;;5009346;28;20431;-82
2023/03/01 11:39:29;;;;;;;4.05;3.25;;;11.00;94.40;;;;;;5011530;28;21403;-85
2023/03/01 11:42:11;;;;;;;4.18;3.38;;;10.60;93.50;;;;;;5010754;28;20417;-86
2023/03/01 11:44:39;;;;;;;3.40;2.85;;;9.60;95.70;;;;;;5008911;28;21013;-86
2023/03/01 11:47:15;;;;;;;5.43;3.28;;;8.60;94.80;;;;;;5007434;28;20417;-85
2023/03/01 11:50:01;;;;;;;4.50;3.45;;;8.00;96.40;;;;;;5010891;28;20386;-82
2023/03/01 11:52:52;;;;;;;4.60;3.43;;;7.70;97.40;;;;;;5010849;28;20474;-86
2023/03/01 11:55:35;;;;;;;4.07;3.17;;;7.80;98.70;;;;;;5009730;28;20403;-84
2023/03/01 11:58:13;;;;;;;4.18;3.00;;;7.80;97.50;;;;;;5010883;28;20379;-84
2023/03/01 12:00:47;;;;;;;4.40;3.15;;;8.00;97.50;;;;;;5010939;28;20378;-85
2023/03/01 12:03:40;;;;;;;4.03;3.10;;;7.90;98.20;;;;;;5010935;28;20454;-86
2023/03/01 12:06:36;;;;;;;4.27;3.10;;;7.80;97.80;;;;;;5012300;28;20402;-85
2023/03/01 12:09:19;;;;;;;4.20;3.10;;;7.50;97.50;;;;;;5010656;28;20395;-86
2023/03/01 12:12:30;;;;;;;4.50;3.00;;;7.50;97.80;;;;;;5010385;28;20379;-83
2023/03/01 12:14:58;;;;;;;3.88;2.75;;;7.50;96.50;;;;;;5005507;28;20469;-82
2023/03/01 12:17:44;;;;;;;6.20;3.33;;;7.30;96.60;;;;;;5009536;28;20414;-85
2023/03/01 12:20:34;;;;;;;4.70;3.13;;;7.70;97.30;;;;;;5008076;28;20382;-85
2023/03/01 12:23:15;;;;;;;4.40;2.95;;;7.70;98.00;;;;;;5010375;28;20383;-83
2023/03/01 12:26:28;;;;;;;3.47;2.97;;;7.80;97.40;;;;;;5009679;28;20448;-84
2023/03/01 12:29:27;;;;;;;4.40;3.10;;;7.90;97.20;;;;;;4978157;28;20457;-84
2023/03/01 12:32:30;;;;;;;3.40;2.60;;;7.90;96.60;;;;;;5008054;28;20375;-83
2023/03/01 12:35:12;;;;;;;3.95;2.80;;;7.70;97.10;;;;;;5009715;28;20834;-86
2023/03/01 12:37:41;;;;;;;5.10;3.00;;;7.80;97.20;;;;;;5007754;28;20414;-86
2023/03/01 12:40:30;;;;;;;4.60;2.70;;;7.60;97.60;;;;;;5009124;28;20378;-84
2023/03/01 12:43:20;;;;;;;4.05;3.00;;;7.80;96.80;;;;;;5033126;28;20389;-82
2023/03/01 14:46:38;;;;;;;3.92;2.63;;;7.50;97.80;;;;;;5131286;27;20948;-86
2023/03/01 14:49:18;;;;;;;3.60;2.42;;;7.60;99.00;;;;;;5091803;28;20403;-87
2023/03/01 14:51:56;;;;;;;3.53;2.50;;;7.70;98.90;;;;;;5108569;28;20420;-85
2023/03/01 14:54:29;;;;;;;3.97;2.83;;;7.80;99.20;;;;;;5108209;28;20431;-84
2023/03/01 14:57:00;;;;;;;4.47;2.47;;;7.70;99.90;;;;;;5088617;28;20416;-86
2023/03/01 14:59:26;;;;;;;4.22;2.85;;;7.80;99.80;;;;;;5092702;28;20379;-85
2023/03/01 15:01:56;;;;;;;3.95;2.67;;;7.80;99.90;;;;;;5111206;28;20368;-85